Adam Hegstrom 40x0:30/0:30r row

5,659

Meters

20:00.0

Time

1:46.0

Pace

425

Calories

141

Heart Rate

Rest Distance3,558
Rest Time20:00.0
Overall Distance9,217
Overall Time40:00.0
Average Watts294
Calories Per Hour1275
Stroke Rate28
Stroke Count930
Drag Factor87

June 27, 2021 16:36:00

Workout
RowErg

Workout Type
Interval:Time

Weight Class
Hwt

Verified
Yes

Entered
ErgData Android

Intervals

Time Meters Pace Watts Cal/Hr S/M
20:00.0 5,659 1:46.0 294 1275 28 141
0:30.0 107 2:20.1 127 720 24 99
0:30.0 107 2:20.1 127 720 22 108
0:30.0 111 2:15.1 142 720 24 111
0:30.0 108 2:18.8 131 720 22 109
0:30.0 109 2:17.6 134 720 22 114
0:30.0 141 1:46.3 291 1200 28 124
0:30.0 143 1:44.8 303 1320 28 133
0:30.0 144 1:44.1 310 1320 30 134
0:30.0 144 1:44.1 310 1320 28 137
0:30.0 142 1:45.6 297 1200 28 135
0:30.0 144 1:44.1 310 1320 28 138
0:30.0 145 1:43.4 316 1320 28 139
0:30.0 145 1:43.4 316 1320 28 141
0:30.0 144 1:44.1 310 1320 30 140
0:30.0 145 1:43.4 316 1320 28 141
0:30.0 144 1:44.1 310 1320 28 143
0:30.0 148 1:41.3 336 1440 28 144
0:30.0 145 1:43.4 316 1320 30 146
0:30.0 146 1:42.7 323 1320 28 146
0:30.0 144 1:44.1 310 1320 28 144
0:30.0 145 1:43.4 316 1320 28 143
0:30.0 147 1:42.0 329 1320 28 146
0:30.0 145 1:43.4 316 1320 28 147
0:30.0 146 1:42.7 323 1320 26 148
0:30.0 145 1:43.4 316 1320 28 147
0:30.0 145 1:43.4 316 1320 28 149
0:30.0 148 1:41.3 336 1440 28 148
0:30.0 146 1:42.7 323 1320 28 147
0:30.0 149 1:40.6 343 1440 28 150
0:30.0 145 1:43.4 316 1320 28 149
0:30.0 148 1:41.3 336 1440 30 150
0:30.0 150 1:40.0 350 1440 30 151
0:30.0 148 1:41.3 336 1440 30 153
0:30.0 149 1:40.6 343 1440 28 152
0:30.0 148 1:41.3 336 1440 30 152
0:30.0 151 1:39.3 357 1440 30 154
0:30.0 146 1:42.7 323 1320 32 152
0:30.0 152 1:38.6 364 1440 34 155
0:30.0 151 1:39.3 357 1440 34 157
0:30.0 151 1:39.3 357 1440 34 156
r3,558

Click on an interval to see the workout graph.

Click and drag on the graph to zoom in on a section.

Workout Graph

Loading data.